createdAt,value
2023-02-16T00:00:49.140Z,83.65
2023-02-16T00:03:19.657Z,74.15
2023-02-16T00:05:47.123Z,72.10
2023-02-16T00:08:14.116Z,77.63
2023-02-16T00:10:41.408Z,76.18
2023-02-16T00:13:48.891Z,65.05
2023-02-16T00:16:17.216Z,74.35
2023-02-16T00:18:44.622Z,84.18
2023-02-16T00:21:11.729Z,81.75
2023-02-16T00:23:38.869Z,77.93
2023-02-16T00:26:06.435Z,90.10
2023-02-16T00:28:33.487Z,79.00
2023-02-16T00:31:00.497Z,82.50
2023-02-16T00:33:27.529Z,80.78
2023-02-16T00:35:54.450Z,74.90
2023-02-16T00:38:21.363Z,72.47
2023-02-16T00:40:48.368Z,78.00
2023-02-16T00:43:28.096Z,85.72
2023-02-16T00:45:56.390Z,76.30
2023-02-16T00:48:24.566Z,84.43
2023-02-16T00:50:51.488Z,70.95
2023-02-16T00:53:18.399Z,72.13
2023-02-16T00:55:45.633Z,82.70
2023-02-16T00:58:12.572Z,76.57
2023-02-16T01:00:48.852Z,76.53
2023-02-16T01:03:29.055Z,74.47
2023-02-16T01:06:15.005Z,83.38
2023-02-16T01:09:01.087Z,86.60
2023-02-16T01:11:28.651Z,76.68
2023-02-16T01:13:56.861Z,80.95
2023-02-16T01:16:27.867Z,80.18
2023-02-16T01:18:54.763Z,78.53
2023-02-16T01:21:22.041Z,82.55
2023-02-16T01:23:49.335Z,74.93
2023-02-16T01:26:18.969Z,70.65
2023-02-16T01:28:46.314Z,78.97
2023-02-16T01:31:14.534Z,83.05
2023-02-16T01:33:42.680Z,71.75
2023-02-16T01:36:33.878Z,79.00
2023-02-16T01:39:01.159Z,78.63
2023-02-16T01:41:52.274Z,77.32
2023-02-16T01:44:26.021Z,83.18
2023-02-16T01:47:14.049Z,85.88
2023-02-16T01:49:40.992Z,80.07
2023-02-16T01:52:29.520Z,92.25
2023-02-16T01:55:13.827Z,82.45
2023-02-16T01:57:45.995Z,89.65
2023-02-16T02:00:22.747Z,76.88
2023-02-16T02:03:15.592Z,71.68
2023-02-16T02:05:43.213Z,81.65
2023-02-16T02:08:14.887Z,81.95
2023-02-16T02:10:57.595Z,74.93
2023-02-16T02:13:40.794Z,79.03
2023-02-16T02:16:08.175Z,77.47
2023-02-16T02:18:35.235Z,82.32
2023-02-16T02:21:50.539Z,82.95
2023-02-16T02:24:42.097Z,74.40
2023-02-16T02:27:32.331Z,81.82
2023-02-16T02:30:01.924Z,77.78
2023-02-16T02:33:07.984Z,74.28
2023-02-16T02:35:49.589Z,84.57
2023-02-16T02:38:54.210Z,69.28
2023-02-16T02:41:56.414Z,78.38
2023-02-16T02:44:27.035Z,70.82
2023-02-16T02:46:54.892Z,83.35
2023-02-16T02:49:22.052Z,77.35
2023-02-16T02:51:50.414Z,81.82
2023-02-16T02:54:45.922Z,74.80
2023-02-16T02:57:40.605Z,71.68
2023-02-16T03:00:43.823Z,71.47
2023-02-16T03:03:30.340Z,76.43
2023-02-16T03:06:08.433Z,69.00
2023-02-16T03:08:39.346Z,85.07
2023-02-16T03:11:39.820Z,70.13
2023-02-16T03:14:26.748Z,72.97
2023-02-16T03:17:18.820Z,74.80
2023-02-16T03:20:07.646Z,85.68
2023-02-16T03:22:54.526Z,75.07
2023-02-16T03:25:47.535Z,72.28
2023-02-16T03:28:34.281Z,73.93
2023-02-16T03:31:03.855Z,80.40
2023-02-16T03:33:31.405Z,78.65
2023-02-16T03:35:59.388Z,81.25
2023-02-16T03:38:27.134Z,69.90
2023-02-16T03:40:54.966Z,70.43
2023-02-16T03:43:26.101Z,66.63
2023-02-16T03:45:53.134Z,77.47
2023-02-16T03:48:20.341Z,80.72
2023-02-16T03:50:47.233Z,70.60
2023-02-16T03:53:14.191Z,69.82
2023-02-16T03:55:46.637Z,72.68
2023-02-16T03:58:16.646Z,90.00
2023-02-16T04:00:43.695Z,80.50
2023-02-16T04:03:10.765Z,68.55
2023-02-16T04:05:38.295Z,68.65
2023-02-16T04:08:06.460Z,62.13
2023-02-16T04:10:33.520Z,88.57
2023-02-16T04:13:00.492Z,64.50
2023-02-16T04:15:29.645Z,65.85
2023-02-16T04:17:57.406Z,68.30
2023-02-16T04:20:27.427Z,76.85
2023-02-16T04:22:54.402Z,77.20
2023-02-16T04:25:21.432Z,81.60
2023-02-16T04:27:49.063Z,71.93
2023-02-16T04:30:19.804Z,69.30
2023-02-16T04:32:46.797Z,69.40
2023-02-16T04:35:14.521Z,73.25
2023-02-16T04:37:41.663Z,67.22
2023-02-16T04:40:14.915Z,65.07
2023-02-16T04:42:43.072Z,70.37
2023-02-16T04:45:11.156Z,74.85
2023-02-16T04:47:38.234Z,65.07
2023-02-16T04:50:07.075Z,65.88
2023-02-16T04:52:34.395Z,65.85
2023-02-16T04:55:01.390Z,72.20
2023-02-16T04:57:28.398Z,80.85
2023-02-16T04:59:55.363Z,72.70
2023-02-16T05:02:22.303Z,69.55
2023-02-16T05:04:49.321Z,72.07
2023-02-16T05:07:16.263Z,66.53
2023-02-16T05:09:43.248Z,82.57
2023-02-16T05:12:29.554Z,71.38
2023-02-16T05:14:56.473Z,60.35
2023-02-16T05:17:25.559Z,78.13
2023-02-16T05:19:55.925Z,71.93
2023-02-16T05:22:23.177Z,76.93
2023-02-16T05:24:50.213Z,62.92
2023-02-16T05:27:20.592Z,78.68
2023-02-16T05:29:47.528Z,70.22
2023-02-16T05:32:14.998Z,77.10
2023-02-16T05:34:42.019Z,78.40
2023-02-16T05:37:08.946Z,72.55
2023-02-16T05:39:35.958Z,63.40
2023-02-16T05:42:02.939Z,74.68
2023-02-16T05:44:29.968Z,63.80
2023-02-16T05:46:56.930Z,71.63
2023-02-16T05:49:23.899Z,75.40
2023-02-16T05:51:50.810Z,68.30
2023-02-16T05:54:17.820Z,74.68
2023-02-16T05:56:50.825Z,73.65
2023-02-16T05:59:18.430Z,69.88
2023-02-16T06:01:50.513Z,71.07
2023-02-16T06:04:18.181Z,73.45
2023-02-16T06:06:45.336Z,69.57
2023-02-16T06:09:12.537Z,74.43
2023-02-16T06:11:39.988Z,72.57
2023-02-16T06:14:39.804Z,70.63
2023-02-16T06:17:06.786Z,74.32
2023-02-16T06:19:33.794Z,69.93
2023-02-16T06:22:00.821Z,68.75
2023-02-16T06:24:27.732Z,77.30
2023-02-16T06:26:54.665Z,73.38
2023-02-16T06:29:21.568Z,73.13
2023-02-16T06:31:48.621Z,74.68
2023-02-16T06:34:15.714Z,77.13
2023-02-16T06:36:42.934Z,69.30
2023-02-16T06:39:09.962Z,73.75
2023-02-16T06:41:42.977Z,75.38
2023-02-16T06:44:13.596Z,68.13
2023-02-16T06:46:42.362Z,76.00
2023-02-16T06:49:18.146Z,69.55
2023-02-16T06:51:46.048Z,74.70
2023-02-16T06:54:13.569Z,76.55
2023-02-16T06:56:40.864Z,72.63
2023-02-16T06:59:08.106Z,73.70
2023-02-16T07:01:35.354Z,73.63
2023-02-16T07:04:02.331Z,73.30
2023-02-16T07:06:29.815Z,76.22
2023-02-16T07:08:57.171Z,83.10
2023-02-16T07:11:24.327Z,83.03
2023-02-16T07:13:51.597Z,72.82
2023-02-16T07:16:18.656Z,78.05
2023-02-16T07:18:46.823Z,72.80
2023-02-16T07:21:14.356Z,83.90
2023-02-16T07:23:41.728Z,79.20
2023-02-16T07:26:08.759Z,74.07
2023-02-16T07:28:35.841Z,65.55
2023-02-16T07:31:08.122Z,71.07
2023-02-16T07:33:35.331Z,68.13
2023-02-16T07:36:02.557Z,71.10
2023-02-16T07:38:30.873Z,70.70
2023-02-16T07:40:58.669Z,67.82
2023-02-16T07:43:26.321Z,75.00
2023-02-16T07:45:53.647Z,76.03
2023-02-16T07:48:21.154Z,74.15
2023-02-16T07:50:48.460Z,70.28
2023-02-16T07:53:15.542Z,72.88
2023-02-16T07:55:43.989Z,74.30
2023-02-16T07:58:11.550Z,80.57
2023-02-16T08:00:38.743Z,69.60
2023-02-16T08:03:05.986Z,80.53
2023-02-16T08:05:36.004Z,72.78
2023-02-16T08:08:02.983Z,69.68
2023-02-16T08:10:30.033Z,69.50
2023-02-16T08:12:57.199Z,66.57
2023-02-16T08:15:24.173Z,69.55
2023-02-16T08:17:51.094Z,79.28
2023-02-16T08:20:18.137Z,78.43
2023-02-16T08:22:45.034Z,67.13
2023-02-16T08:25:12.005Z,86.85
2023-02-16T08:27:45.581Z,70.03
2023-02-16T08:30:13.821Z,80.03
2023-02-16T08:32:40.848Z,72.28
2023-02-16T08:35:08.553Z,66.78
2023-02-16T08:37:37.838Z,69.90
2023-02-16T08:40:08.175Z,73.57
2023-02-16T08:42:36.742Z,75.30
2023-02-16T08:45:05.285Z,79.78
2023-02-16T08:47:33.182Z,86.30
2023-02-16T08:50:00.881Z,68.60
2023-02-16T08:52:28.062Z,71.38
2023-02-16T08:54:55.437Z,65.43
2023-02-16T08:57:22.298Z,80.70
2023-02-16T09:00:09.416Z,77.03
2023-02-16T09:02:36.412Z,70.40
2023-02-16T09:05:05.314Z,78.07
2023-02-16T09:07:35.090Z,72.75
2023-02-16T09:10:03.094Z,77.20
2023-02-16T09:12:31.069Z,81.20
2023-02-16T09:14:58.077Z,77.95
2023-02-16T09:17:25.408Z,72.93
2023-02-16T09:19:52.724Z,75.05
2023-02-16T09:22:19.610Z,74.47
2023-02-16T09:24:46.668Z,81.35
2023-02-16T09:27:13.599Z,71.57
2023-02-16T09:29:40.643Z,73.70
2023-02-16T09:32:10.048Z,65.93
2023-02-16T09:34:38.208Z,73.10
2023-02-16T09:37:05.182Z,71.68
2023-02-16T09:39:32.190Z,74.00
2023-02-16T09:42:26.824Z,72.78
2023-02-16T09:45:14.110Z,81.82
2023-02-16T09:47:46.397Z,76.13
2023-02-16T09:50:15.790Z,76.10
2023-02-16T09:52:57.381Z,74.40
2023-02-16T09:55:48.974Z,72.63
2023-02-16T09:58:42.256Z,80.68
2023-02-16T10:01:38.032Z,80.22
2023-02-16T10:04:44.219Z,80.18
2023-02-16T10:07:29.530Z,81.88
2023-02-16T10:12:32.157Z,72.93
2023-02-16T10:15:18.225Z,78.07
2023-02-16T10:18:15.205Z,73.72
2023-02-16T10:20:46.308Z,66.60
2023-02-16T10:23:42.404Z,84.22
2023-02-16T10:26:32.202Z,78.20
2023-02-16T10:29:06.192Z,85.45
2023-02-16T10:31:52.523Z,81.47
2023-02-16T10:34:48.853Z,76.75
2023-02-16T10:37:52.876Z,76.43
2023-02-16T10:40:44.115Z,83.82
2023-02-16T10:43:43.677Z,82.00
2023-02-16T10:46:35.348Z,85.30
2023-02-16T10:49:02.948Z,81.22
2023-02-16T10:51:37.354Z,84.82
2023-02-16T10:54:19.179Z,79.15
2023-02-16T10:57:00.687Z,86.95
2023-02-16T10:59:38.796Z,85.82
2023-02-16T11:02:20.912Z,90.45
2023-02-16T11:04:52.585Z,91.32
2023-02-16T11:07:22.778Z,95.15
2023-02-16T11:09:55.568Z,94.28
2023-02-16T11:12:42.303Z,97.10
2023-02-16T11:15:16.711Z,99.65
2023-02-16T11:18:20.666Z,89.20
2023-02-16T11:20:47.749Z,103.53
2023-02-16T11:23:22.018Z,99.15
2023-02-16T11:25:57.132Z,98.63
2023-02-16T11:28:32.743Z,100.53
2023-02-16T11:31:21.473Z,93.68
2023-02-16T11:34:06.428Z,93.03
2023-02-16T11:36:44.095Z,99.57
2023-02-16T11:39:14.106Z,103.30
2023-02-16T11:42:04.094Z,89.20
2023-02-16T11:44:44.606Z,89.25
2023-02-16T11:47:37.632Z,90.47
2023-02-16T11:50:19.799Z,94.53
2023-02-16T11:52:53.453Z,91.00
2023-02-16T11:55:27.917Z,92.50
2023-02-16T11:57:57.058Z,95.70
2023-02-16T12:00:26.727Z,86.65
2023-02-16T12:03:22.756Z,91.95
2023-02-16T12:06:11.984Z,98.57
2023-02-16T12:08:48.039Z,95.97
2023-02-16T12:11:47.704Z,94.68
2023-02-16T12:14:38.990Z,94.32
2023-02-16T12:17:18.094Z,104.40
2023-02-16T12:20:14.970Z,105.57
2023-02-16T12:22:44.533Z,106.65
2023-02-16T12:25:38.255Z,103.05
2023-02-16T12:28:23.545Z,98.22
2023-02-16T12:31:17.543Z,87.57
2023-02-16T12:34:03.952Z,89.72
2023-02-16T12:36:50.919Z,88.45
2023-02-16T12:39:52.152Z,85.32
2023-02-16T12:42:19.098Z,77.50
2023-02-16T12:44:50.451Z,64.35
2023-02-16T12:47:29.841Z,64.20
2023-02-16T12:50:03.526Z,64.90
2023-02-16T12:52:46.578Z,78.10
2023-02-16T12:55:22.153Z,66.30
2023-02-16T12:58:07.572Z,63.17
2023-02-16T13:00:48.597Z,68.45
2023-02-16T13:03:44.891Z,62.47
2023-02-16T13:06:30.752Z,59.70
2023-02-16T13:09:22.067Z,64.60
2023-02-16T13:12:10.046Z,66.60
2023-02-16T13:14:42.334Z,69.85
2023-02-16T13:17:16.163Z,61.13
2023-02-16T13:19:45.526Z,60.15
2023-02-16T13:23:01.334Z,59.40
2023-02-16T13:25:37.617Z,54.35
2023-02-16T13:28:37.173Z,53.90
2023-02-16T13:31:54.560Z,50.47
2023-02-16T13:34:38.324Z,56.47
2023-02-16T13:37:54.053Z,52.20
2023-02-16T13:40:40.199Z,53.30
2023-02-16T13:43:33.569Z,38.92
2023-02-16T13:46:07.463Z,38.22
2023-02-16T13:48:47.873Z,36.33
2023-02-16T13:51:22.071Z,36.88
2023-02-16T13:53:56.776Z,34.80
2023-02-16T13:56:29.947Z,41.08
2023-02-16T13:58:59.311Z,30.08
2023-02-16T14:01:32.368Z,31.65
2023-02-16T14:04:01.385Z,36.10
2023-02-16T14:06:32.862Z,58.13
2023-02-16T14:09:19.253Z,34.90
2023-02-16T14:11:54.962Z,38.22
2023-02-16T14:14:46.293Z,40.95
2023-02-16T14:17:17.730Z,34.00
2023-02-16T14:19:58.733Z,36.65
2023-02-16T14:22:48.932Z,41.00
2023-02-16T14:25:24.632Z,40.05
2023-02-16T14:27:54.205Z,61.33
2023-02-16T14:30:27.595Z,39.00
2023-02-16T14:33:01.635Z,44.58
2023-02-16T14:38:17.518Z,47.78
2023-02-16T14:40:56.050Z,47.72
2023-02-16T14:43:45.762Z,46.00
2023-02-16T14:46:28.072Z,47.65
2023-02-16T14:49:07.643Z,46.95
2023-02-16T14:51:59.331Z,45.38
2023-02-16T14:55:00.126Z,62.22
2023-02-16T14:57:34.838Z,41.70
2023-02-16T15:00:19.617Z,45.25
2023-02-16T15:02:58.200Z,47.50
2023-02-16T15:05:33.241Z,39.42
2023-02-16T15:08:09.556Z,45.85
2023-02-16T15:10:39.219Z,41.00
2023-02-16T15:13:06.624Z,45.00
2023-02-16T15:15:42.756Z,40.15
2023-02-16T15:18:21.369Z,43.10
2023-02-16T15:20:51.285Z,44.25
2023-02-16T15:23:22.079Z,47.40
2023-02-16T15:25:58.869Z,43.85
2023-02-16T15:28:29.610Z,54.50
2023-02-16T15:31:02.539Z,45.65
2023-02-16T15:33:41.164Z,50.65
2023-02-16T15:36:13.359Z,51.45
2023-02-16T15:38:43.325Z,50.13
2023-02-16T15:41:14.736Z,48.22
2023-02-16T15:43:50.195Z,53.10
2023-02-16T15:46:30.768Z,62.67
2023-02-16T15:48:59.295Z,60.55
2023-02-16T15:51:34.841Z,55.03
2023-02-16T15:54:22.105Z,60.00
2023-02-16T15:56:52.153Z,64.82
2023-02-16T15:59:47.508Z,63.72
2023-02-16T16:02:36.243Z,64.85
2023-02-16T16:05:06.956Z,69.63
2023-02-16T16:07:42.119Z,72.55
2023-02-16T16:10:31.142Z,70.88
2023-02-16T16:13:01.691Z,68.85
2023-02-16T16:15:31.025Z,72.25
2023-02-16T16:18:00.852Z,71.00
2023-02-16T16:20:32.785Z,79.78
2023-02-16T16:23:04.595Z,76.60
2023-02-16T16:25:34.627Z,71.18
2023-02-16T16:28:03.506Z,64.65
2023-02-16T16:30:32.664Z,74.45
2023-02-16T16:33:11.977Z,72.38
2023-02-16T16:35:48.223Z,75.35
2023-02-16T16:38:38.574Z,87.75
2023-02-16T16:41:06.029Z,78.95
2023-02-16T16:43:37.037Z,80.72
2023-02-16T16:46:28.411Z,83.03
2023-02-16T16:49:00.128Z,88.30
2023-02-16T16:51:38.447Z,86.65
2023-02-16T16:54:31.410Z,93.25
2023-02-16T16:56:58.356Z,110.00
2023-02-16T16:59:25.241Z,91.82
2023-02-16T17:01:52.950Z,91.95
2023-02-16T17:04:22.118Z,97.10
2023-02-16T17:06:49.165Z,101.68
2023-02-16T17:09:16.934Z,95.88
2023-02-16T17:11:43.985Z,111.50
2023-02-16T17:14:16.693Z,95.13
2023-02-16T17:16:46.019Z,105.85
2023-02-16T17:19:14.950Z,103.43
2023-02-16T17:21:42.619Z,96.03
2023-02-16T17:24:10.314Z,107.18
2023-02-16T17:26:37.883Z,102.43
2023-02-16T17:29:05.834Z,104.78
2023-02-16T17:31:33.493Z,98.78
2023-02-16T17:34:00.466Z,109.55
2023-02-16T17:36:28.321Z,102.57
2023-02-16T17:38:55.391Z,101.93
2023-02-16T17:41:27.016Z,91.18
2023-02-16T17:43:54.623Z,92.50
2023-02-16T17:46:22.693Z,111.45
2023-02-16T17:48:52.234Z,96.90
2023-02-16T17:51:21.528Z,99.50
2023-02-16T17:53:48.505Z,96.53
2023-02-16T17:56:17.841Z,96.20
2023-02-16T17:58:44.942Z,98.15
2023-02-16T18:01:16.485Z,96.45
2023-02-16T18:03:44.859Z,94.07
2023-02-16T18:06:20.408Z,83.28
2023-02-16T18:08:47.575Z,94.32
2023-02-16T18:11:14.599Z,96.90
2023-02-16T18:13:41.659Z,91.05
2023-02-16T18:16:15.234Z,80.95
2023-02-16T18:18:42.191Z,88.93
2023-02-16T18:21:09.176Z,88.80
2023-02-16T18:23:36.170Z,92.50
2023-02-16T18:26:04.536Z,86.25
2023-02-16T18:28:33.340Z,90.80
2023-02-16T18:31:01.133Z,95.07
2023-02-16T18:33:28.318Z,89.82
2023-02-16T18:35:59.950Z,87.80
2023-02-16T18:38:27.274Z,82.95
2023-02-16T18:40:54.883Z,80.85
2023-02-16T18:43:22.655Z,82.82
2023-02-16T18:45:50.088Z,81.55
2023-02-16T18:48:17.193Z,81.18
2023-02-16T18:50:44.105Z,74.22
2023-02-16T18:53:11.032Z,77.80
2023-02-16T18:55:38.087Z,80.43
2023-02-16T18:58:08.093Z,74.35
2023-02-16T19:00:36.648Z,77.28
2023-02-16T19:03:04.430Z,83.57
2023-02-16T19:05:32.122Z,72.78
2023-02-16T19:07:59.140Z,75.90
2023-02-16T19:10:26.209Z,82.05
2023-02-16T19:12:53.287Z,76.43
2023-02-16T19:15:20.367Z,73.18
2023-02-16T19:17:47.455Z,74.72
2023-02-16T19:20:18.241Z,67.65
2023-02-16T19:22:46.598Z,81.93
2023-02-16T19:25:14.604Z,83.90
2023-02-16T19:27:42.558Z,76.65
2023-02-16T19:30:10.335Z,71.53
2023-02-16T19:32:40.973Z,74.50
2023-02-16T19:35:11.970Z,67.43
2023-02-16T19:37:39.269Z,69.55
2023-02-16T19:40:10.234Z,66.40
2023-02-16T19:42:38.644Z,65.47
2023-02-16T19:45:06.084Z,65.40
2023-02-16T19:47:33.200Z,67.85
2023-02-16T19:50:00.222Z,58.78
2023-02-16T19:52:27.663Z,62.08
2023-02-16T19:54:54.919Z,64.55
2023-02-16T19:57:21.894Z,59.63
2023-02-16T19:59:48.890Z,70.05
2023-02-16T20:02:16.019Z,61.67
2023-02-16T20:04:44.421Z,60.97
2023-02-16T20:07:11.473Z,55.45
2023-02-16T20:09:38.500Z,64.18
2023-02-16T20:12:06.291Z,60.35
2023-02-16T20:14:33.141Z,54.83
2023-02-16T20:17:00.167Z,60.40
2023-02-16T20:19:27.126Z,57.15
2023-02-16T20:21:54.197Z,54.88
2023-02-16T20:24:21.273Z,56.70
2023-02-16T20:26:49.163Z,46.58
2023-02-16T20:29:20.681Z,46.10
2023-02-16T20:31:51.755Z,54.53
2023-02-16T20:34:19.330Z,50.60
2023-02-16T20:36:46.357Z,52.40
2023-02-16T20:39:13.627Z,40.95
2023-02-16T20:41:41.415Z,49.90
2023-02-16T20:44:09.289Z,47.60
2023-02-16T20:46:37.843Z,43.83
2023-02-16T20:49:06.732Z,46.35
2023-02-16T20:51:37.933Z,44.60
2023-02-16T20:54:08.415Z,41.72
2023-02-16T20:56:35.437Z,42.78
2023-02-16T20:59:03.594Z,39.58
2023-02-16T21:01:37.625Z,40.03
2023-02-16T21:06:34.067Z,33.97
2023-02-16T21:09:01.436Z,35.60
2023-02-16T21:11:28.518Z,37.15
2023-02-16T21:13:55.915Z,33.22
2023-02-16T21:16:23.105Z,34.25
2023-02-16T21:18:50.173Z,36.15
2023-02-16T21:21:17.609Z,33.47
2023-02-16T21:23:48.057Z,32.25
2023-02-16T21:26:16.497Z,35.78
2023-02-16T21:28:43.392Z,30.63
2023-02-16T21:31:13.943Z,37.45
2023-02-16T21:33:41.024Z,32.03
2023-02-16T21:36:11.381Z,32.25
2023-02-16T21:38:39.344Z,31.20
2023-02-16T21:41:24.317Z,28.60
2023-02-16T21:44:11.391Z,36.47
2023-02-16T21:46:43.422Z,31.35
2023-02-16T21:49:15.881Z,28.27
2023-02-16T21:51:45.921Z,23.90
2023-02-16T21:54:16.781Z,26.27
2023-02-16T21:56:52.439Z,26.73
2023-02-16T21:59:22.697Z,27.00
2023-02-16T22:01:51.432Z,25.90
2023-02-16T22:04:21.826Z,23.55
2023-02-16T22:06:50.647Z,26.40
2023-02-16T22:09:20.727Z,22.30
2023-02-16T22:11:48.075Z,26.40
2023-02-16T22:14:15.506Z,23.85
2023-02-16T22:16:45.531Z,23.92
2023-02-16T22:19:14.994Z,24.65
2023-02-16T22:21:43.331Z,22.50
2023-02-16T22:24:15.989Z,23.67
2023-02-16T22:26:43.514Z,22.27
2023-02-16T22:29:11.991Z,19.98
2023-02-16T22:31:43.226Z,16.67
2023-02-16T22:34:13.364Z,18.75
2023-02-16T22:36:40.332Z,17.75
2023-02-16T22:39:08.215Z,19.48
2023-02-16T22:41:35.565Z,24.13
2023-02-16T22:44:02.669Z,23.77
2023-02-16T22:46:29.988Z,27.58
2023-02-16T22:49:02.096Z,17.65
2023-02-16T22:51:30.986Z,21.10
2023-02-16T22:53:59.477Z,20.25
2023-02-16T22:56:27.087Z,23.13
2023-02-16T22:58:57.537Z,29.20
2023-02-16T23:01:26.378Z,23.13
2023-02-16T23:03:57.339Z,22.08
2023-02-16T23:06:33.713Z,25.13
2023-02-16T23:09:07.040Z,23.67
2023-02-16T23:11:35.359Z,24.73
2023-02-16T23:14:02.755Z,23.38
2023-02-16T23:16:29.910Z,24.27
2023-02-16T23:18:58.702Z,27.02
2023-02-16T23:21:31.184Z,25.13
2023-02-16T23:23:59.268Z,22.35
2023-02-16T23:26:29.594Z,29.60
2023-02-16T23:29:00.425Z,24.58
2023-02-16T23:31:30.714Z,26.75
2023-02-16T23:33:58.755Z,27.70
2023-02-16T23:36:26.374Z,27.23
2023-02-16T23:38:53.365Z,30.13
2023-02-16T23:41:20.379Z,29.60
2023-02-16T23:43:47.342Z,31.63
2023-02-16T23:46:14.429Z,29.23
2023-02-16T23:48:41.535Z,31.50
2023-02-16T23:51:11.133Z,34.60
2023-02-16T23:53:38.906Z,38.03
2023-02-16T23:56:07.968Z,30.27
2023-02-16T23:58:46.968Z,37.90
